Terminal Aerodrome Forecast
Issued by NWS Raleigh/Durham, NC

Home | Current Version | Previous Version | Text Only | Print | Product List | Glossary On
Versions: 1 2 3 4 5 6 7 8 9 10 11 12 13 14 15 16 17 18 19 20 21 22 23 24 25 26 27 28 29 30 31 32 33
000
FTUS42 KRAH 210210 AAA
TAFGSO
TAF AMD
KGSO 210210Z 2102/2124 VRB03KT P6SM OVC025
      TEMPO 2102/2106 6SM BR OVC035
     FM210600 00000KT 5SM BR OVC025
      TEMPO 2109/2112 1SM BR BKN012
     FM211400 06004KT P6SM BKN040=

USA.gov is the U.S. government's official web portal to all federal, state and local government web resources and services.